Time;durP1;ratioP1;P1;durP2;ratioP2;P2;SDS_P1;SDS_P2;PMS_P1;PMS_P2;Temp;Humidity;BMP_temperature;BMP_pressure;BME280_temperature;BME280_humidity;BME280_pressure;Samples;Min_cycle;Max_cycle;Signal;HPM_P1;HPM_P2
2023/06/30 00:01:31;;;;;;;;;;;;;;;13.04;67.65;99180.26;1716367;83;20193;-61
2023/06/30 00:03:57;;;;;;;;;;;;;;;13.06;67.79;99178.86;1709510;83;20197;-61
2023/06/30 00:06:23;;;;;;;;;;;;;;;13.08;67.75;99177.82;1699344;83;20115;-61
2023/06/30 00:08:50;;;;;;;;;;;;;;;13.08;67.96;99172.58;1701960;83;20147;-62
2023/06/30 00:11:17;;;;;;;;;;;;;;;13.06;67.94;99171.84;1720892;83;20138;-61
2023/06/30 00:13:43;;;;;;;;;;;;;;;13.06;68.06;99174.45;1692622;83;20167;-61
2023/06/30 00:16:09;;;;;;;;;;;;;;;13.06;68.17;99174.45;1710105;83;20163;-62
2023/06/30 00:18:36;;;;;;;;;;;;;;;13.07;68.42;99169.57;1708601;83;20140;-61
2023/06/30 00:21:03;;;;;;;;;;;;;;;13.06;68.34;99171.84;1742308;82;20456;-62
2023/06/30 00:23:29;;;;;;;;;;;;;;;13.05;68.42;99166.23;1740905;82;20091;-63
2023/06/30 00:25:55;;;;;;;;;;;;;;;13.07;68.58;99165.64;1730885;82;20508;-61
2023/06/30 00:28:21;;;;;;;;;;;;;;;13.06;68.53;99158.73;1730598;82;20623;-62
2023/06/30 00:30:47;;;;;;;;;;;;;;;13.04;68.61;99152.74;1728528;82;20226;-60
2023/06/30 00:33:14;;;;;;;;;;;;;;;13.06;68.89;99150.87;1730127;82;20491;-60
2023/06/30 00:35:40;;;;;;;;;;;;;;;13.06;68.96;99145.63;1716724;83;20202;-60
2023/06/30 00:38:06;;;;;;;;;;;;;;;13.05;68.97;99141.78;1742095;81;20946;-60
2023/06/30 00:40:33;;;;;;;;;;;;;;;13.04;69.02;99147.50;1714532;83;20113;-61
2023/06/30 00:43:00;;;;;;;;;;;;;;;13.02;69.19;99142.83;1740999;81;20447;-61
2023/06/30 00:45:27;;;;;;;;;;;;;;;13.01;69.24;99145.09;1744430;81;20186;-60
2023/06/30 00:47:53;;;;;;;;;;;;;;;13.02;69.19;99141.52;1746457;81;20130;-61
2023/06/30 00:50:19;;;;;;;;;;;;;;;13.02;69.19;99145.45;1742922;81;20197;-60
2023/06/30 00:52:47;;;;;;;;;;;;;;;13.02;69.29;99144.13;1744925;81;20159;-60
2023/06/30 00:55:14;;;;;;;;;;;;;;;13.00;69.25;99134.25;1741765;81;20615;-60
2023/06/30 00:57:42;;;;;;;;;;;;;;;12.98;69.33;99137.43;1741755;81;20111;-61
2023/06/30 01:00:11;;;;;;;;;;;;;;;12.96;69.44;99130.13;1714056;83;20117;-61
2023/06/30 01:02:38;;;;;;;;;;;;;;;12.98;69.57;99129.56;1742506;80;20176;-62
2023/06/30 01:05:09;;;;;;;;;;;;;;;12.96;69.61;99119.17;1743422;80;20135;-62
2023/06/30 01:07:36;;;;;;;;;;;;;;;12.95;69.74;99124.53;1740245;81;20402;-65
2023/06/30 01:10:05;;;;;;;;;;;;;;;12.96;69.88;99120.96;1747798;81;20103;-61
2023/06/30 01:12:31;;;;;;;;;;;;;;;12.97;69.99;99116.11;1745871;80;20154;-61
2023/06/30 01:14:58;;;;;;;;;;;;;;;12.97;70.12;99120.05;1745500;81;20186;-60
2023/06/30 01:17:25;;;;;;;;;;;;;;;12.96;70.26;99107.86;1742528;81;20099;-61
2023/06/30 01:19:53;;;;;;;;;;;;;;;12.97;70.23;99102.53;1744514;81;20202;-61
2023/06/30 01:22:25;;;;;;;;;;;;;;;12.97;70.33;99104.31;1744016;81;20144;-62
2023/06/30 01:24:53;;;;;;;;;;;;;;;12.97;70.27;99106.94;1745660;80;20154;-62
2023/06/30 01:27:20;;;;;;;;;;;;;;;12.97;70.27;99100.39;1711823;83;20109;-61
2023/06/30 01:29:46;;;;;;;;;;;;;;;12.98;70.40;99099.44;1714974;83;20165;-61
2023/06/30 01:32:16;;;;;;;;;;;;;;;12.97;70.43;99101.70;1742787;81;20104;-61
2023/06/30 01:34:48;;;;;;;;;;;;;;;12.96;70.48;99106.07;1746546;80;20162;-60
2023/06/30 01:37:13;;;;;;;;;;;;;;;12.95;70.58;99103.57;1750962;81;20423;-63
2023/06/30 01:39:43;;;;;;;;;;;;;;;12.94;70.69;99100.12;1758145;80;20201;-63
2023/06/30 01:42:12;;;;;;;;;;;;;;;12.96;70.77;99110.48;1749233;80;20099;-60
2023/06/30 01:44:39;;;;;;;;;;;;;;;12.95;70.87;99108.81;1754238;80;20110;-63
2023/06/30 01:47:06;;;;;;;;;;;;;;;12.94;70.98;99101.91;1755194;80;20117;-62
2023/06/30 01:49:33;;;;;;;;;;;;;;;12.95;71.09;99112.74;1755032;80;20102;-61
2023/06/30 01:52:00;;;;;;;;;;;;;;;12.92;71.12;99114.27;1754236;80;20162;-62
2023/06/30 01:54:26;;;;;;;;;;;;;;;12.92;71.33;99112.95;1755586;80;20158;-61
2023/06/30 01:56:52;;;;;;;;;;;;;;;12.93;71.36;99113.31;1756112;80;20168;-60
2023/06/30 01:59:18;;;;;;;;;;;;;;;12.94;71.45;99111.08;1752727;80;20125;-61
2023/06/30 02:01:44;;;;;;;;;;;;;;;12.93;71.40;99108.06;1755172;80;20142;-61
2023/06/30 02:04:10;;;;;;;;;;;;;;;12.91;71.55;99108.19;1755922;80;20179;-61
2023/06/30 02:06:36;;;;;;;;;;;;;;;12.93;71.57;99110.21;1754156;80;20097;-61
2023/06/30 02:09:02;;;;;;;;;;;;;;;12.95;71.57;99114.05;1756110;80;20610;-60
2023/06/30 02:11:28;;;;;;;;;;;;;;;12.95;71.66;99108.81;1754825;80;20163;-62
2023/06/30 02:13:54;;;;;;;;;;;;;;;12.97;71.81;99113.48;1757523;80;20457;-64
2023/06/30 02:16:20;;;;;;;;;;;;;;;12.98;71.92;99096.81;1756371;80;20098;-60
2023/06/30 02:18:47;;;;;;;;;;;;;;;12.98;71.87;99100.74;1752391;80;20112;-61
2023/06/30 02:21:13;;;;;;;;;;;;;;;12.95;71.88;99095.71;1753973;80;20244;-61
2023/06/30 02:23:39;;;;;;;;;;;;;;;12.93;72.03;99089.25;1755622;80;20198;-61
2023/06/30 02:26:05;;;;;;;;;;;;;;;12.93;72.14;99089.73;1753991;80;20185;-60
2023/06/30 02:28:31;;;;;;;;;;;;;;;12.92;72.29;99090.68;1755285;80;20165;-63
2023/06/30 02:30:59;;;;;;;;;;;;;;;12.95;72.41;99087.84;1747580;80;20142;-60
2023/06/30 02:33:25;;;;;;;;;;;;;;;12.98;72.58;99092.88;1755411;80;20162;-60
2023/06/30 02:35:51;;;;;;;;;;;;;;;13.03;72.71;99090.80;1756531;80;20197;-62
2023/06/30 02:38:17;;;;;;;;;;;;;;;13.08;72.89;99091.33;1758363;80;20186;-65
2023/06/30 02:40:45;;;;;;;;;;;;;;;13.15;73.07;99086.50;1754543;80;20132;-64
2023/06/30 02:43:11;;;;;;;;;;;;;;;13.23;73.16;99091.23;1755129;80;20153;-61
2023/06/30 02:45:37;;;;;;;;;;;;;;;13.33;73.15;99084.42;1756709;80;20382;-61
2023/06/30 02:48:04;;;;;;;;;;;;;;;13.42;73.16;99080.72;1756902;80;20108;-61
2023/06/30 02:50:31;;;;;;;;;;;;;;;13.53;73.28;99078.66;1756937;80;20103;-60
2023/06/30 02:53:00;;;;;;;;;;;;;;;13.64;73.31;99081.38;1754125;80;20385;-62
2023/06/30 02:55:27;;;;;;;;;;;;;;;13.75;73.36;99081.07;1755179;80;20128;-63
2023/06/30 02:57:53;;;;;;;;;;;;;;;13.87;73.45;99082.38;1753891;80;20137;-60
2023/06/30 03:00:20;;;;;;;;;;;;;;;14.00;73.52;99082.80;1756336;80;20150;-60
2023/06/30 03:02:46;;;;;;;;;;;;;;;14.08;73.48;99082.61;1721851;83;20196;-62
2023/06/30 03:05:12;;;;;;;;;;;;;;;14.21;73.66;99087.00;1712492;83;20113;-61
2023/06/30 03:07:38;;;;;;;;;;;;;;;14.35;73.66;99078.95;1711321;83;20197;-60
2023/06/30 03:10:05;;;;;;;;;;;;;;;14.46;73.64;99079.00;1691013;84;20490;-60
2023/06/30 03:12:31;;;;;;;;;;;;;;;14.57;73.66;99074.78;1690681;84;20117;-62
2023/06/30 03:14:57;;;;;;;;;;;;;;;14.68;73.71;99075.66;1736611;82;20203;-61
2023/06/30 03:17:23;;;;;;;;;;;;;;;14.79;73.78;99069.61;1726263;82;20212;-61
2023/06/30 03:19:49;;;;;;;;;;;;;;;14.90;73.86;99064.37;1718735;83;20207;-65
2023/06/30 03:22:15;;;;;;;;;;;;;;;15.03;74.05;99064.75;1692372;83;20198;-61
2023/06/30 03:24:40;;;;;;;;;;;;;;;15.12;73.92;99064.88;1721818;82;20423;-61
2023/06/30 03:27:07;;;;;;;;;;;;;;;15.23;73.99;99060.11;1711399;82;20141;-60
2023/06/30 03:29:33;;;;;;;;;;;;;;;15.34;74.04;99057.48;1694769;83;20160;-62
2023/06/30 03:31:59;;;;;;;;;;;;;;;15.43;73.96;99059.42;1692437;83;20174;-64
2023/06/30 03:34:25;;;;;;;;;;;;;;;15.52;73.95;99062.30;1688520;83;20139;-60
2023/06/30 03:36:52;;;;;;;;;;;;;;;15.60;74.02;99059.88;1711880;83;20175;-60
2023/06/30 03:39:18;;;;;;;;;;;;;;;15.71;74.02;99061.25;1702574;83;20175;-61
2023/06/30 03:41:45;;;;;;;;;;;;;;;15.83;74.15;99061.58;1704256;83;20159;-64
2023/06/30 03:44:11;;;;;;;;;;;;;;;15.95;74.01;99058.92;1696272;83;20127;-63
2023/06/30 03:46:37;;;;;;;;;;;;;;;16.04;74.05;99060.81;1718428;83;20159;-64
2023/06/30 03:49:03;;;;;;;;;;;;;;;16.15;74.11;99055.52;1691818;83;20488;-63
2023/06/30 03:51:29;;;;;;;;;;;;;;;16.22;73.95;99058.02;1714825;83;20255;-62
2023/06/30 03:53:56;;;;;;;;;;;;;;;16.26;73.91;99055.48;1696465;83;20136;-61
2023/06/30 03:56:22;;;;;;;;;;;;;;;16.34;73.96;99054.86;1742960;82;20151;-63
2023/06/30 03:58:48;;;;;;;;;;;;;;;16.38;74.01;99053.64;1734631;82;20401;-62
2023/06/30 04:01:15;;;;;;;;;;;;;;;16.43;73.97;99050.64;1739086;82;20465;-61
2023/06/30 04:03:41;;;;;;;;;;;;;;;16.48;73.93;99050.61;1732102;82;20106;-63
2023/06/30 04:06:07;;;;;;;;;;;;;;;16.54;73.90;99051.91;1717344;82;20176;-61
2023/06/30 04:08:33;;;;;;;;;;;;;;;16.57;73.83;99049.02;1692905;83;20103;-62
2023/06/30 04:10:59;;;;;;;;;;;;;;;16.61;73.85;99049.13;1691748;83;20241;-61
2023/06/30 04:13:27;;;;;;;;;;;;;;;16.67;73.86;99042.52;1707613;83;20116;-61
2023/06/30 04:15:53;;;;;;;;;;;;;;;16.74;73.98;99047.13;1705530;83;20464;-60
2023/06/30 04:18:20;;;;;;;;;;;;;;;16.82;74.00;99043.88;1717708;83;20184;-60
2023/06/30 04:20:47;;;;;;;;;;;;;;;16.91;74.01;99051.50;1692783;83;20182;-62
2023/06/30 04:23:13;;;;;;;;;;;;;;;16.99;74.04;99046.42;1710800;83;20092;-60
2023/06/30 04:25:41;;;;;;;;;;;;;;;17.11;74.09;99049.81;1698959;83;20196;-61
2023/06/30 04:28:09;;;;;;;;;;;;;;;17.21;74.00;99052.86;1687179;83;20584;-61
2023/06/30 04:30:35;;;;;;;;;;;;;;;17.35;74.02;99049.53;1703586;83;20405;-60
2023/06/30 04:33:01;;;;;;;;;;;;;;;17.49;74.00;99049.66;1706725;83;20217;-62
2023/06/30 04:35:27;;;;;;;;;;;;;;;17.59;73.75;99044.78;1701387;83;20105;-62
2023/06/30 04:37:53;;;;;;;;;;;;;;;17.68;73.57;99043.97;1726161;82;20157;-63
2023/06/30 04:40:19;;;;;;;;;;;;;;;17.76;73.64;99043.80;1719186;82;20173;-61
2023/06/30 04:42:46;;;;;;;;;;;;;;;17.88;73.66;99038.77;1722318;82;20148;-60
2023/06/30 04:45:12;;;;;;;;;;;;;;;18.02;73.64;99038.38;1714711;82;20530;-61
2023/06/30 04:47:38;;;;;;;;;;;;;;;18.10;73.35;99037.21;1685636;83;20647;-60
2023/06/30 04:50:05;;;;;;;;;;;;;;;18.16;73.33;99029.72;1711308;83;20460;-60
2023/06/30 04:52:31;;;;;;;;;;;;;;;18.28;73.36;99034.71;1693593;83;20145;-60
2023/06/30 04:54:57;;;;;;;;;;;;;;;18.40;73.38;99040.72;1705933;82;20515;-61
2023/06/30 04:57:29;;;;;;;;;;;;;;;18.48;73.08;99032.08;1707262;84;20180;-61
2023/06/30 04:59:56;;;;;;;;;;;;;;;18.47;72.88;99031.25;1690272;83;20108;-61
2023/06/30 05:02:23;;;;;;;;;;;;;;;18.47;73.02;99031.25;1674960;83;20424;-61
2023/06/30 05:04:49;;;;;;;;;;;;;;;18.58;73.02;99027.63;1747525;81;20334;-61
2023/06/30 05:07:15;;;;;;;;;;;;;;;18.63;72.95;99032.51;1749673;81;20115;-64
2023/06/30 05:09:41;;;;;;;;;;;;;;;18.66;72.79;99037.52;1750705;80;20197;-62
2023/06/30 05:12:08;;;;;;;;;;;;;;;18.67;72.45;99023.30;1749313;81;20129;-61
2023/06/30 05:14:34;;;;;;;;;;;;;;;18.64;72.46;99028.88;1719887;83;20164;-61
2023/06/30 05:17:00;;;;;;;;;;;;;;;18.61;72.42;99026.52;1718919;82;20114;-63
2023/06/30 05:19:28;;;;;;;;;;;;;;;18.62;72.59;99030.81;1710589;82;20192;-60
2023/06/30 05:21:54;;;;;;;;;;;;;;;18.59;72.34;99029.28;1752426;81;20133;-64
2023/06/30 05:24:20;;;;;;;;;;;;;;;18.62;72.49;99028.17;1748965;82;20139;-63
2023/06/30 05:26:46;;;;;;;;;;;;;;;18.61;72.30;99028.66;1749092;80;20145;-63
2023/06/30 05:29:12;;;;;;;;;;;;;;;18.66;72.51;99036.19;1749703;81;20417;-62
2023/06/30 05:31:38;;;;;;;;;;;;;;;18.82;72.70;99027.23;1750922;82;20173;-63
2023/06/30 05:34:04;;;;;;;;;;;;;;;18.97;72.55;99036.38;1750673;81;20437;-62
2023/06/30 05:36:31;;;;;;;;;;;;;;;19.05;72.15;99029.05;1753550;81;20168;-61
2023/06/30 05:38:57;;;;;;;;;;;;;;;19.13;71.97;99036.25;1760860;80;20112;-61
2023/06/30 05:41:23;;;;;;;;;;;;;;;19.14;71.83;99032.64;1758778;80;20164;-61
2023/06/30 05:43:49;;;;;;;;;;;;;;;19.18;71.96;99030.03;1756343;80;20161;-61
2023/06/30 05:46:15;;;;;;;;;;;;;;;19.22;71.98;99036.73;1754636;80;20394;-61
2023/06/30 05:48:41;;;;;;;;;;;;;;;19.28;71.92;99028.20;1755653;80;20216;-62
2023/06/30 05:51:10;;;;;;;;;;;;;;;19.32;71.78;99029.56;1757639;80;20145;-63
2023/06/30 05:53:35;;;;;;;;;;;;;;;19.34;71.72;99031.59;1718548;82;20143;-61
2023/06/30 05:56:01;;;;;;;;;;;;;;;19.34;71.68;99024.97;1710081;83;20203;-62
2023/06/30 05:58:27;;;;;;;;;;;;;;;19.39;71.74;99026.70;1703473;84;20163;-62
2023/06/30 06:00:56;;;;;;;;;;;;;;;19.42;71.56;99019.78;1719297;82;20442;-63
2023/06/30 06:03:23;;;;;;;;;;;;;;;19.47;71.43;99021.17;1689628;83;20189;-63
2023/06/30 06:05:49;;;;;;;;;;;;;;;19.52;71.44;99018.90;1710463;83;20207;-63
2023/06/30 06:08:15;;;;;;;;;;;;;;;19.57;71.32;99027.23;1695098;83;20103;-63
2023/06/30 06:10:48;;;;;;;;;;;;;;;19.64;71.54;99023.04;1696251;84;20214;-62
2023/06/30 06:13:11;;;;;;;;;;;;;;;19.70;71.11;99019.83;1695801;83;20158;-62
2023/06/30 06:15:37;;;;;;;;;;;;;;;19.72;70.89;99019.20;1695751;85;20206;-63
2023/06/30 06:18:05;;;;;;;;;;;;;;;19.74;70.90;99030.95;1695157;85;20125;-64
2023/06/30 06:20:31;;;;;;;;;;;;;;;19.76;70.90;99032.47;1693756;85;20196;-63
2023/06/30 06:22:57;;;;;;;;;;;;;;;19.81;70.85;99025.41;1696355;84;20089;-62
2023/06/30 06:25:23;;;;;;;;;;;;;;;19.86;70.86;99030.61;1694809;85;20105;-63
2023/06/30 06:27:49;;;;;;;;;;;;;;;19.89;70.66;99030.31;1696407;84;20156;-63
2023/06/30 06:30:16;;;;;;;;;;;;;;;19.90;70.64;99031.97;1696024;85;20401;-63
2023/06/30 06:32:42;;;;;;;;;;;;;;;19.94;70.56;99030.34;1689007;84;20187;-63
2023/06/30 06:35:08;;;;;;;;;;;;;;;19.92;70.49;99031.83;1709313;83;20109;-62
2023/06/30 06:37:34;;;;;;;;;;;;;;;19.91;70.41;99031.47;1685953;84;20155;-62
2023/06/30 06:40:01;;;;;;;;;;;;;;;19.83;70.19;99036.20;1682940;84;20468;-62
2023/06/30 06:42:27;;;;;;;;;;;;;;;19.78;70.30;99030.52;1687039;84;20102;-62
2023/06/30 06:44:53;;;;;;;;;;;;;;;19.71;70.27;99029.42;1668054;85;20204;-62
2023/06/30 06:47:38;;;;;;;;;;;;;;;19.69;70.50;99031.41;1679079;85;20117;-62
2023/06/30 06:50:05;;;;;;;;;;;;;;;19.70;70.45;99033.06;1679028;85;20722;-62
2023/06/30 06:52:31;;;;;;;;;;;;;;;19.71;70.44;99029.42;1679496;85;20299;-61
2023/06/30 06:54:59;;;;;;;;;;;;;;;19.77;70.61;99030.16;1680160;85;21098;-64
2023/06/30 06:57:25;;;;;;;;;;;;;;;19.86;70.70;99027.13;1678753;85;20182;-61
2023/06/30 06:59:51;;;;;;;;;;;;;;;19.97;70.60;99023.42;1676235;85;20535;-61
2023/06/30 07:02:17;;;;;;;;;;;;;;;20.11;70.58;99020.28;1660358;85;20207;-71
2023/06/30 07:04:43;;;;;;;;;;;;;;;20.26;70.52;99017.43;1683179;85;20184;-62
2023/06/30 07:07:12;;;;;;;;;;;;;;;20.44;70.31;99021.89;1683803;85;20208;-63
2023/06/30 07:09:42;;;;;;;;;;;;;;;20.59;70.39;99023.06;1684012;84;21349;-61
2023/06/30 07:12:07;;;;;;;;;;;;;;;20.69;70.17;99018.47;1684806;83;20116;-62
2023/06/30 07:14:33;;;;;;;;;;;;;;;20.77;70.02;99023.84;1685434;84;20175;-62
2023/06/30 07:16:59;;;;;;;;;;;;;;;20.85;70.02;99022.25;1686863;83;20148;-61
2023/06/30 07:19:29;;;;;;;;;;;;;;;20.98;70.25;99024.01;1681411;83;20199;-62
2023/06/30 07:21:56;;;;;;;;;;;;;;;21.04;69.88;99026.03;1681327;85;20190;-63
2023/06/30 07:24:30;;;;;;;;;;;;;;;21.12;69.96;99024.75;1681279;84;20194;-62
2023/06/30 07:26:50;;;;;;;;;;;;;;;21.19;69.95;99021.80;1689064;81;20252;-63
2023/06/30 07:29:16;;;;;;;;;;;;;;;21.30;70.03;99019.87;1683636;84;20167;-63
2023/06/30 07:31:42;;;;;;;;;;;;;;;21.39;69.74;99020.27;1682414;85;20189;-62
2023/06/30 07:34:10;;;;;;;;;;;;;;;21.45;69.63;99024.94;1707188;83;20210;-63
2023/06/30 07:36:37;;;;;;;;;;;;;;;21.55;69.71;99016.36;1682692;84;20424;-62
2023/06/30 07:39:06;;;;;;;;;;;;;;;21.58;69.40;99018.70;1681077;85;20501;-65
2023/06/30 07:41:34;;;;;;;;;;;;;;;21.64;69.13;99018.05;1683227;85;20168;-63
2023/06/30 07:44:02;;;;;;;;;;;;;;;21.70;69.38;99021.06;1683228;83;20425;-63
2023/06/30 07:46:29;;;;;;;;;;;;;;;21.84;69.08;99020.44;1680294;85;20186;-62
2023/06/30 07:48:55;;;;;;;;;;;;;;;21.93;68.80;99020.82;1695546;83;20212;-62
2023/06/30 07:51:22;;;;;;;;;;;;;;;22.03;68.45;99014.84;1693023;83;20475;-62
2023/06/30 07:53:48;;;;;;;;;;;;;;;22.15;68.00;99013.20;1686008;83;20123;-62
2023/06/30 07:56:14;;;;;;;;;;;;;;;22.25;68.27;99013.92;1696696;83;20490;-62
2023/06/30 07:58:42;;;;;;;;;;;;;;;22.44;67.97;99011.45;1643527;85;20235;-65
2023/06/30 08:01:08;;;;;;;;;;;;;;;22.50;67.40;99016.92;1683642;84;20164;-63
2023/06/30 08:03:34;;;;;;;;;;;;;;;22.55;67.29;99009.28;1681826;84;20521;-64
2023/06/30 08:06:00;;;;;;;;;;;;;;;22.65;67.29;99005.61;1686438;83;20188;-65
2023/06/30 08:08:26;;;;;;;;;;;;;;;22.74;67.25;99007.26;1698792;83;20142;-62
2023/06/30 08:10:53;;;;;;;;;;;;;;;22.83;67.27;99003.61;1687967;84;20175;-63
2023/06/30 08:13:19;;;;;;;;;;;;;;;22.97;67.05;99006.94;1685111;85;20196;-63
2023/06/30 08:15:45;;;;;;;;;;;;;;;23.11;66.99;99008.59;1684644;83;20166;-63
2023/06/30 08:18:11;;;;;;;;;;;;;;;23.26;66.95;99007.38;1684055;83;20086;-62
2023/06/30 08:20:38;;;;;;;;;;;;;;;23.40;66.40;99012.80;1679363;85;20188;-63
2023/06/30 08:23:04;;;;;;;;;;;;;;;23.48;66.30;99005.80;1687011;85;20097;-60
2023/06/30 08:25:30;;;;;;;;;;;;;;;23.62;66.08;99009.06;1681188;84;20191;-68
2023/06/30 08:27:56;;;;;;;;;;;;;;;23.66;66.07;99007.19;1681759;85;20192;-64
2023/06/30 08:30:24;;;;;;;;;;;;;;;23.87;65.94;99003.97;1710858;83;20172;-66
2023/06/30 08:32:51;;;;;;;;;;;;;;;24.07;65.43;99002.19;1684663;85;20173;-62
2023/06/30 08:35:17;;;;;;;;;;;;;;;24.17;65.21;98997.46;1681687;84;20198;-64
2023/06/30 08:37:43;;;;;;;;;;;;;;;24.19;64.95;98990.09;1696058;83;20229;-63
2023/06/30 08:40:14;;;;;;;;;;;;;;;24.23;64.84;98991.41;1702493;83;20177;-62
2023/06/30 08:42:40;;;;;;;;;;;;;;;24.19;64.34;98984.75;1701462;83;20218;-63
2023/06/30 08:45:11;;;;;;;;;;;;;;;24.15;64.30;98987.47;1703783;83;20169;-63
2023/06/30 08:47:39;;;;;;;;;;;;;;;24.10;64.03;98987.16;1676640;83;20202;-63
2023/06/30 08:50:06;;;;;;;;;;;;;;;23.94;64.02;98992.59;1702760;83;20213;-62
2023/06/30 08:52:34;;;;;;;;;;;;;;;23.83;64.11;98991.98;1701591;83;20209;-63
2023/06/30 08:55:02;;;;;;;;;;;;;;;23.73;63.97;98995.38;1700136;83;20210;-63
2023/06/30 08:57:30;;;;;;;;;;;;;;;23.51;63.28;98994.80;1702548;83;20188;-64
2023/06/30 08:59:57;;;;;;;;;;;;;;;23.21;63.50;98999.88;1704099;82;20221;-63
2023/06/30 09:02:25;;;;;;;;;;;;;;;22.97;63.29;99004.78;1698991;83;20461;-62
2023/06/30 09:04:52;;;;;;;;;;;;;;;22.69;63.25;99011.77;1697249;83;20114;-63
2023/06/30 09:07:20;;;;;;;;;;;;;;;22.38;63.29;99016.94;1700286;83;20172;-63
2023/06/30 09:09:54;;;;;;;;;;;;;;;21.87;63.84;99020.11;1699748;83;20194;-63
2023/06/30 09:12:26;;;;;;;;;;;;;;;21.36;64.18;99016.58;1717367;83;20231;-62
2023/06/30 09:14:55;;;;;;;;;;;;;;;21.01;65.18;99021.04;1685769;83;20230;-62
2023/06/30 09:17:22;;;;;;;;;;;;;;;20.93;65.54;99020.98;1720371;83;20227;-62
2023/06/30 09:19:49;;;;;;;;;;;;;;;20.94;65.89;99020.81;1706622;83;20368;-62
2023/06/30 09:22:16;;;;;;;;;;;;;;;20.99;65.96;99024.34;1690453;83;20162;-63
2023/06/30 09:24:42;;;;;;;;;;;;;;;21.06;66.12;99021.41;1715198;82;20152;-63
2023/06/30 09:27:12;;;;;;;;;;;;;;;21.07;65.90;99023.06;1708130;83;20166;-63
2023/06/30 09:29:35;;;;;;;;;;;;;;;21.02;66.17;99014.73;1700493;83;20175;-63
2023/06/30 09:32:02;;;;;;;;;;;;;;;20.91;66.56;99020.30;1716390;83;20368;-63
2023/06/30 09:34:28;;;;;;;;;;;;;;;20.82;66.56;99013.28;1720359;82;20152;-65
2023/06/30 09:36:56;;;;;;;;;;;;;;;20.84;67.11;99015.27;1716136;82;20607;-63
2023/06/30 09:39:23;;;;;;;;;;;;;;;20.90;67.04;99014.66;1676527;83;20177;-63
2023/06/30 09:41:50;;;;;;;;;;;;;;;20.89;66.95;99011.66;1709205;82;20168;-63
2023/06/30 09:44:20;;;;;;;;;;;;;;;20.96;67.16;99015.36;1689872;84;20174;-62
2023/06/30 09:46:47;;;;;;;;;;;;;;;21.02;67.24;99008.09;1712454;84;20133;-62
2023/06/30 09:49:32;;;;;;;;;;;;;;;21.10;67.54;99014.78;1680758;83;20187;-63
2023/06/30 09:51:59;;;;;;;;;;;;;;;21.21;67.65;99011.86;1708350;84;20116;-63
2023/06/30 09:54:33;;;;;;;;;;;;;;;21.31;67.52;99020.20;1686391;83;20463;-64
2023/06/30 09:57:00;;;;;;;;;;;;;;;21.34;67.46;99014.56;1706019;82;20270;-62
2023/06/30 09:59:28;;;;;;;;;;;;;;;21.33;67.43;99008.92;1687439;83;20201;-63
2023/06/30 10:01:57;;;;;;;;;;;;;;;21.34;67.65;99013.23;1681949;83;20182;-64
2023/06/30 10:04:30;;;;;;;;;;;;;;;21.38;67.94;99017.29;1690906;83;20187;-63
2023/06/30 10:06:57;;;;;;;;;;;;;;;21.35;67.65;99009.61;1688525;84;20188;-64
2023/06/30 10:09:24;;;;;;;;;;;;;;;21.29;67.86;99010.25;1690200;83;20169;-66
2023/06/30 10:11:52;;;;;;;;;;;;;;;21.31;67.98;99009.07;1687569;84;20130;-61
2023/06/30 10:14:22;;;;;;;;;;;;;;;21.32;67.86;99007.27;1684639;84;20155;-66
2023/06/30 10:16:49;;;;;;;;;;;;;;;21.28;67.76;98996.11;1685431;84;20166;-63
2023/06/30 10:19:15;;;;;;;;;;;;;;;21.22;67.85;99000.23;1702252;82;20159;-63
2023/06/30 10:21:42;;;;;;;;;;;;;;;21.20;67.75;99004.03;1708903;82;20191;-64
2023/06/30 10:24:09;;;;;;;;;;;;;;;21.15;67.93;99006.36;1747757;80;20473;-63
2023/06/30 10:26:37;;;;;;;;;;;;;;;21.13;68.17;99010.98;1745146;81;20189;-64
2023/06/30 10:29:03;;;;;;;;;;;;;;;21.12;68.43;99011.48;1742669;81;20210;-63
2023/06/30 10:31:31;;;;;;;;;;;;;;;21.10;68.45;99004.16;1746653;81;20186;-64
2023/06/30 10:33:57;;;;;;;;;;;;;;;21.08;68.58;99000.83;1741014;81;20178;-63
2023/06/30 10:36:24;;;;;;;;;;;;;;;21.11;68.67;98997.86;1746971;81;20186;-64
2023/06/30 10:38:51;;;;;;;;;;;;;;;21.14;68.61;99001.52;1745930;81;20103;-63
2023/06/30 10:41:20;;;;;;;;;;;;;;;21.12;68.32;98999.54;1747828;81;20468;-63
2023/06/30 10:44:04;;;;;;;;;;;;;;;21.06;68.57;99008.14;1749856;81;20185;-64
2023/06/30 10:46:40;;;;;;;;;;;;;;;21.02;69.00;99004.11;1747061;80;20085;-63
2023/06/30 10:49:06;;;;;;;;;;;;;;;21.06;69.27;99004.16;1747473;81;20511;-64
2023/06/30 10:51:36;;;;;;;;;;;;;;;21.15;69.15;98993.91;1748761;81;20186;-64
2023/06/30 10:54:03;;;;;;;;;;;;;;;21.29;69.21;98999.62;1744418;81;20162;-64
2023/06/30 10:56:29;;;;;;;;;;;;;;;21.35;69.10;98991.02;1748097;81;20429;-63
2023/06/30 10:59:01;;;;;;;;;;;;;;;21.42;69.17;98992.89;1739724;80;20164;-64
2023/06/30 11:01:27;;;;;;;;;;;;;;;21.47;69.44;98988.44;1713083;83;20192;-64
2023/06/30 11:03:58;;;;;;;;;;;;;;;21.48;69.25;98983.45;1684948;85;20171;-64
2023/06/30 11:06:25;;;;;;;;;;;;;;;21.49;69.80;98982.48;1711242;82;20149;-64
2023/06/30 11:09:03;;;;;;;;;;;;;;;21.56;69.51;98980.83;1726768;81;20163;-64
2023/06/30 11:11:31;;;;;;;;;;;;;;;21.58;69.70;98981.51;1682726;84;20198;-64
2023/06/30 11:14:08;;;;;;;;;;;;;;;21.67;69.69;98988.50;1706228;82;20107;-64
2023/06/30 11:16:51;;;;;;;;;;;;;;;21.73;69.64;98976.89;1676439;84;20496;-64
2023/06/30 11:19:24;;;;;;;;;;;;;;;21.81;70.00;98974.27;1718741;82;20154;-64
2023/06/30 11:22:09;;;;;;;;;;;;;;;21.95;70.10;98969.64;1713853;83;20154;-65
2023/06/30 11:24:35;;;;;;;;;;;;;;;22.02;69.79;98962.69;1730199;82;20205;-64
2023/06/30 11:27:04;;;;;;;;;;;;;;;22.07;69.90;98967.02;1730170;82;20197;-64
2023/06/30 11:29:30;;;;;;;;;;;;;;;22.22;70.19;98965.06;1711892;83;20192;-64
2023/06/30 11:32:00;;;;;;;;;;;;;;;22.34;70.04;98962.39;1745027;81;20098;-64
2023/06/30 11:34:25;;;;;;;;;;;;;;;22.41;69.69;98965.24;1749371;80;20190;-65
2023/06/30 11:36:51;;;;;;;;;;;;;;;22.37;69.83;98962.06;1743670;81;20104;-64
2023/06/30 11:39:17;;;;;;;;;;;;;;;22.28;69.77;98961.73;1749288;80;20170;-65
2023/06/30 11:41:45;;;;;;;;;;;;;;;22.15;69.69;98966.67;1748497;81;20106;-65
2023/06/30 11:44:13;;;;;;;;;;;;;;;22.01;70.27;98957.02;1746922;81;20476;-65
2023/06/30 11:46:39;;;;;;;;;;;;;;;21.91;70.21;98960.34;1745561;81;20175;-65
2023/06/30 11:49:05;;;;;;;;;;;;;;;21.79;70.32;98962.95;1711895;82;20168;-65
2023/06/30 11:51:32;;;;;;;;;;;;;;;21.73;70.44;98964.94;1700889;82;20149;-64
2023/06/30 11:53:59;;;;;;;;;;;;;;;21.63;70.57;98964.59;1703609;83;20172;-63
2023/06/30 11:56:48;;;;;;;;;;;;;;;21.51;70.52;98956.60;1715560;82;20185;-65
2023/06/30 11:58:58;;;;;;;;;;;;;;;21.37;70.64;98959.84;1707899;82;20101;-65
2023/06/30 12:01:36;;;;;;;;;;;;;;;;;;;;;
2023/06/30 12:04:12;;;;;;;;;;;;;;;;;;;;;
2023/06/30 12:09:40;;;;;;;;;;;;;;;;;;;;;
2023/06/30 12:12:00;;;;;;;;;;;;;;;20.40;71.83;98959.56;1620906;85;20205;-64
2023/06/30 12:14:28;;;;;;;;;;;;;;;20.37;72.34;98953.24;1684150;82;20196;-64
2023/06/30 12:16:56;;;;;;;;;;;;;;;20.37;72.66;98954.57;1711470;82;20216;-65
2023/06/30 12:19:30;;;;;;;;;;;;;;;20.31;72.72;98953.36;1645400;85;20169;-64
2023/06/30 12:21:56;;;;;;;;;;;;;;;20.27;72.86;98960.77;1646865;86;20102;-64
2023/06/30 12:24:27;;;;;;;;;;;;;;;20.18;72.72;98956.39;1633672;87;20459;-65
2023/06/30 12:26:51;;;;;;;;;;;;;;;20.08;72.95;98951.65;1645787;86;20106;-64
2023/06/30 12:29:23;;;;;;;;;;;;;;;20.02;73.09;98947.80;1645666;86;20184;-64
2023/06/30 12:31:51;;;;;;;;;;;;;;;19.99;73.36;98948.59;1645807;86;20157;-64
2023/06/30 12:34:30;;;;;;;;;;;;;;;20.03;73.92;98943.34;1650511;85;20212;-64
2023/06/30 12:36:56;;;;;;;;;;;;;;;20.18;74.50;98951.59;1647111;86;20190;-64
2023/06/30 12:39:24;;;;;;;;;;;;;;;20.22;74.15;98953.79;1649942;85;20178;-65
2023/06/30 12:41:50;;;;;;;;;;;;;;;20.15;73.79;98952.72;1631505;86;20485;-64
2023/06/30 12:44:17;;;;;;;;;;;;;;;20.04;73.92;98956.92;1662533;85;20169;-64
2023/06/30 12:46:43;;;;;;;;;;;;;;;19.93;74.27;98951.86;1662375;85;20105;-64
2023/06/30 12:49:10;;;;;;;;;;;;;;;19.76;74.77;98947.72;1663033;85;20491;-65
2023/06/30 12:51:41;;;;;;;;;;;;;;;19.77;75.34;98940.59;1710716;82;20530;-67
2023/06/30 12:54:11;;;;;;;;;;;;;;;19.80;75.64;98929.23;1684173;84;20183;-64